MSC Bettina — HPFG — position and weather

sailwx.info

Track history (hours):
 
Tides and Currents Weather Stations Pressure Air Temp Water Temp Dewpoint Dewpoint Depression Visibility Wind Speed Wind Dir Waves Ship Positions

MSC Bettina

Last reported at 2014-Nov-01 10:32 UTC. Time now 2014-Nov-01 11:20 UTC.
Position N 51°57' E 001°19'.

Length 366 m; draft 15.3 m.

Type: Ship (hazmat cat A). MMSI: 352361000.

Date/timePositionNaut miles runAvg speedWind from/ knotsBaromVisibWave heightAir tempDewpointWater temp
2014-Nov-01 10:32N 51°57' E 001°19'0 0.0
2014-Nov-01 09:32N 51°57' E 001°19'0 0.0
2014-Nov-01 08:32N 51°57' E 001°19'0 0.0
2014-Nov-01 07:32N 51°57' E 001°19'0 0.0
2014-Nov-01 06:32N 51°57' E 001°19'0 0.0
2014-Nov-01 05:32N 51°57' E 001°19'0 0.0
2014-Nov-01 04:32N 51°57' E 001°19'0 0.0
2014-Nov-01 03:32N 51°57' E 001°19'0 0.0
2014-Nov-01 02:32N 51°57' E 001°19'0 0.0
2014-Nov-01 01:32N 51°57' E 001°19'0 0.0
2014-Nov-01 00:32N 51°57' E 001°19'0 0.0
2014-Oct-31 23:32N 51°57' E 001°19'0 0.0
2014-Oct-31 22:32N 51°57' E 001°19'0 0.0
2014-Oct-31 21:33N 51°57' E 001°19'0 0.0
2014-Oct-31 20:32N 51°57' E 001°19'0 0.0
2014-Oct-31 19:33N 51°57' E 001°19'0 0.0
2014-Oct-31 18:32N 51°57' E 001°19'0 0.0
2014-Oct-31 17:32N 51°57' E 001°19'0 0.0
2014-Oct-31 16:33N 51°57' E 001°19'3 3.4
2014-Oct-31 15:33N 51°56' E 001°24'1010.3
2014-Oct-31 14:33N 51°52' E 001°39'6 6.3
2014-Oct-31 13:33N 51°48' E 001°48'1010.0
2014-Oct-31 12:33N 51°38' E 001°50'7 7.0
2014-Oct-31 11:33N 51°31' E 001°52'1211.9
2014-Oct-31 10:33N 51°20' E 001°57'1515.4
2014-Oct-31 09:34N 51°08' E 001°42'1817.9
2014-Oct-31 08:33N 50°53' E 001°26'1818.2
2014-Oct-31 07:34N 50°37' E 001°11'1615.9
2014-Oct-31 06:33N 50°29' E 000°49'1514.6
2014-Oct-31 05:34N 50°25' E 000°27'1514.7
2014-Oct-31 04:33N 50°21' E 000°05'1515.1
2014-Oct-31 03:33N 50°17' W 000°18'1615.9
2014-Oct-31 02:33N 50°13' W 000°42'1717.0
2014-Oct-31 01:33N 50°08' W 001°07'1817.6
2014-Oct-31 00:33N 50°03' W 001°34'1818.0
2014-Oct-30 23:33N 49°59' W 002°01'3416.4
2014-Oct-30 21:28N 49°49' W 002°51'1516.3
2014-Oct-30 20:33N 49°42' W 003°12'72115.9
2014-Oct-28 23:14N 38°41' W 009°52'1116.9
2014-Oct-28 22:33N 38°30' W 009°49'1717.0
2014-Oct-28 21:33N 38°13' W 009°44'1717.1
2014-Oct-28 20:33N 37°57' W 009°39'1717.0
2014-Oct-28 19:33N 37°40' W 009°33'1716.9
2014-Oct-28 18:33N 37°24' W 009°29'4815.9
2014-Oct-28 15:33N 36°42' W 008°59'3417.0
2014-Oct-28 13:32N 36°31' W 008°19'1817.2
2014-Oct-28 12:30N 36°26' W 007°58'2317.5
2014-Oct-28 11:12N 36°18' W 007°31'2017.6
2014-Oct-28 10:04N 36°12' W 007°08'7616.9
2014-Oct-28 05:33N 35°58' W 005°35'1817.9
2014-Oct-28 04:34N 36°01' W 005°14'17517.1
2014-Oct-27 18:20N 36°29' W 001°40'1417.0
2014-Oct-27 17:30N 36°31' W 001°22'12017.2
2014-Oct-27 10:31N 36°49' E 001°06'3416.9
2014-Oct-27 08:31N 36°54' E 001°47'2117.3
2014-Oct-27 07:19N 36°57' E 002°13'1517.4
2014-Oct-27 06:28N 37°00' E 002°31'1917.4
2014-Oct-27 05:22N 37°03' E 002°55'1617.2
2014-Oct-27 04:26N 37°05' E 003°15'2116.6
2014-Oct-27 03:08N 37°07' E 003°42'1316.8
2014-Oct-27 02:23N 37°09' E 003°58'1416.8
2014-Oct-27 01:33N 37°12' E 004°15'1717.0
2014-Oct-27 00:34N 37°15' E 004°36'2517.2
2014-Oct-26 23:06N 37°17' E 005°07'  
Track history (hours):
 
Tides and Currents Weather Stations Pressure Air Temp Water Temp Dewpoint Dewpoint Depression Visibility Wind Speed Wind Dir Waves Ship Positions

MSC Bettina

Last reported at 2014-Nov-01 10:32 UTC. Time now 2014-Nov-01 11:20 UTC.
Position N 51°57' E 001°19'.

Length 366 m; draft 15.3 m.

Type: Ship (hazmat cat A). MMSI: 352361000.

Date/timePositionNaut miles runAvg speedWind from/ knotsBaromVisibWave heightAir tempDewpointWater temp
2014-Nov-01 10:32N 51°57' E 001°19'0 0.0
2014-Nov-01 09:32N 51°57' E 001°19'0 0.0
2014-Nov-01 08:32N 51°57' E 001°19'0 0.0
2014-Nov-01 07:32N 51°57' E 001°19'0 0.0
2014-Nov-01 06:32N 51°57' E 001°19'0 0.0
2014-Nov-01 05:32N 51°57' E 001°19'0 0.0
2014-Nov-01 04:32N 51°57' E 001°19'0 0.0
2014-Nov-01 03:32N 51°57' E 001°19'0 0.0
2014-Nov-01 02:32N 51°57' E 001°19'0 0.0
2014-Nov-01 01:32N 51°57' E 001°19'0 0.0
2014-Nov-01 00:32N 51°57' E 001°19'0 0.0
2014-Oct-31 23:32N 51°57' E 001°19'0 0.0
2014-Oct-31 22:32N 51°57' E 001°19'0 0.0
2014-Oct-31 21:33N 51°57' E 001°19'0 0.0
2014-Oct-31 20:32N 51°57' E 001°19'0 0.0
2014-Oct-31 19:33N 51°57' E 001°19'0 0.0
2014-Oct-31 18:32N 51°57' E 001°19'0 0.0
2014-Oct-31 17:32N 51°57' E 001°19'0 0.0
2014-Oct-31 16:33N 51°57' E 001°19'3 3.4
2014-Oct-31 15:33N 51°56' E 001°24'1010.3
2014-Oct-31 14:33N 51°52' E 001°39'6 6.3
2014-Oct-31 13:33N 51°48' E 001°48'1010.0
2014-Oct-31 12:33N 51°38' E 001°50'7 7.0
2014-Oct-31 11:33N 51°31' E 001°52'1211.9
2014-Oct-31 10:33N 51°20' E 001°57'1515.4
2014-Oct-31 09:34N 51°08' E 001°42'1817.9
2014-Oct-31 08:33N 50°53' E 001°26'1818.2
2014-Oct-31 07:34N 50°37' E 001°11'1615.9
2014-Oct-31 06:33N 50°29' E 000°49'1514.6
2014-Oct-31 05:34N 50°25' E 000°27'1514.7
2014-Oct-31 04:33N 50°21' E 000°05'1515.1
2014-Oct-31 03:33N 50°17' W 000°18'1615.9
2014-Oct-31 02:33N 50°13' W 000°42'1717.0
2014-Oct-31 01:33N 50°08' W 001°07'1817.6
2014-Oct-31 00:33N 50°03' W 001°34'1818.0
2014-Oct-30 23:33N 49°59' W 002°01'3416.4
2014-Oct-30 21:28N 49°49' W 002°51'1516.3
2014-Oct-30 20:33N 49°42' W 003°12'72115.9
2014-Oct-28 23:14N 38°41' W 009°52'1116.9
2014-Oct-28 22:33N 38°30' W 009°49'1717.0
2014-Oct-28 21:33N 38°13' W 009°44'1717.1
2014-Oct-28 20:33N 37°57' W 009°39'1717.0
2014-Oct-28 19:33N 37°40' W 009°33'1716.9
2014-Oct-28 18:33N 37°24' W 009°29'4815.9
2014-Oct-28 15:33N 36°42' W 008°59'3417.0
2014-Oct-28 13:32N 36°31' W 008°19'1817.2
2014-Oct-28 12:30N 36°26' W 007°58'2317.5
2014-Oct-28 11:12N 36°18' W 007°31'2017.6
2014-Oct-28 10:04N 36°12' W 007°08'7616.9
2014-Oct-28 05:33N 35°58' W 005°35'1817.9
2014-Oct-28 04:34N 36°01' W 005°14'17517.1
2014-Oct-27 18:20N 36°29' W 001°40'1417.0
2014-Oct-27 17:30N 36°31' W 001°22'12017.2
2014-Oct-27 10:31N 36°49' E 001°06'3416.9
2014-Oct-27 08:31N 36°54' E 001°47'2117.3
2014-Oct-27 07:19N 36°57' E 002°13'1517.4
2014-Oct-27 06:28N 37°00' E 002°31'1917.4
2014-Oct-27 05:22N 37°03' E 002°55'1617.2
2014-Oct-27 04:26N 37°05' E 003°15'2116.6
2014-Oct-27 03:08N 37°07' E 003°42'1316.8
2014-Oct-27 02:23N 37°09' E 003°58'1416.8
2014-Oct-27 01:33N 37°12' E 004°15'1717.0
2014-Oct-27 00:34N 37°15' E 004°36'2517.2
2014-Oct-26 23:06N 37°17' E 005°07'  

Dump ship's entire track history